sensor_id;sensor_type;location;lat;lon;timestamp;P1;durP1;ratioP1;P2;durP2;ratioP2
57329;SDS011;43163;51.032;18.280;2023-05-27T00:07:52;17.30;;;5.70;;
57329;SDS011;43163;51.032;18.280;2023-05-27T00:17:41;13.60;;;4.50;;
57329;SDS011;43163;51.032;18.280;2023-05-27T00:27:37;3.10;;;2.40;;
57329;SDS011;43163;51.032;18.280;2023-05-27T00:44:48;9.20;;;4.70;;
57329;SDS011;43163;51.032;18.280;2023-05-27T00:54:40;32.50;;;4.40;;
57329;SDS011;43163;51.032;18.280;2023-05-27T01:04:32;10.60;;;4.00;;
57329;SDS011;43163;51.032;18.280;2023-05-27T01:14:38;16.50;;;4.20;;
57329;SDS011;43163;51.032;18.280;2023-05-27T01:24:43;10.40;;;3.70;;
57329;SDS011;43163;51.032;18.280;2023-05-27T01:35:02;4.60;;;3.00;;
57329;SDS011;43163;51.032;18.280;2023-05-27T01:45:08;13.40;;;3.10;;
57329;SDS011;43163;51.032;18.280;2023-05-27T01:55:00;9.80;;;2.70;;
57329;SDS011;43163;51.032;18.280;2023-05-27T02:04:53;8.20;;;3.10;;
57329;SDS011;43163;51.032;18.280;2023-05-27T02:14:44;6.80;;;3.30;;
57329;SDS011;43163;51.032;18.280;2023-05-27T02:24:36;7.20;;;3.80;;
57329;SDS011;43163;51.032;18.280;2023-05-27T02:34:27;7.60;;;3.60;;
57329;SDS011;43163;51.032;18.280;2023-05-27T02:44:17;13.60;;;4.80;;
57329;SDS011;43163;51.032;18.280;2023-05-27T02:54:08;9.70;;;3.50;;
57329;SDS011;43163;51.032;18.280;2023-05-27T03:03:59;10.80;;;4.10;;
57329;SDS011;43163;51.032;18.280;2023-05-27T03:13:50;7.20;;;3.40;;
57329;SDS011;43163;51.032;18.280;2023-05-27T03:23:40;5.90;;;2.70;;
57329;SDS011;43163;51.032;18.280;2023-05-27T03:33:30;11.30;;;2.80;;
57329;SDS011;43163;51.032;18.280;2023-05-27T03:43:20;13.30;;;3.20;;
57329;SDS011;43163;51.032;18.280;2023-05-27T03:53:10;17.80;;;3.40;;
57329;SDS011;43163;51.032;18.280;2023-05-27T04:03:02;3.70;;;2.80;;
57329;SDS011;43163;51.032;18.280;2023-05-27T04:12:52;5.30;;;2.00;;
57329;SDS011;43163;51.032;18.280;2023-05-27T04:22:42;10.10;;;4.70;;
57329;SDS011;43163;51.032;18.280;2023-05-27T04:32:32;8.10;;;1.70;;
57329;SDS011;43163;51.032;18.280;2023-05-27T11:30:14;1.60;;;1.10;;
57329;SDS011;43163;51.032;18.280;2023-05-27T11:40:13;1.60;;;1.30;;
57329;SDS011;43163;51.032;18.280;2023-05-27T11:50:11;2.10;;;1.40;;
57329;SDS011;43163;51.032;18.280;2023-05-27T12:00:13;1.80;;;1.50;;
57329;SDS011;43163;51.032;18.280;2023-05-27T12:10:09;2.80;;;1.40;;
57329;SDS011;43163;51.032;18.280;2023-05-27T12:20:01;5.20;;;1.50;;
57329;SDS011;43163;51.032;18.280;2023-05-27T12:29:49;3.00;;;1.00;;
57329;SDS011;43163;51.032;18.280;2023-05-27T12:39:39;3.10;;;1.60;;
57329;SDS011;43163;51.032;18.280;2023-05-27T12:56:51;6.80;;;1.70;;
57329;SDS011;43163;51.032;18.280;2023-05-27T13:06:41;2.00;;;1.80;;
57329;SDS011;43163;51.032;18.280;2023-05-27T13:16:30;2.80;;;1.50;;
57329;SDS011;43163;51.032;18.280;2023-05-27T13:26:20;1.70;;;0.80;;
57329;SDS011;43163;51.032;18.280;2023-05-27T13:36:10;1.00;;;0.90;;
57329;SDS011;43163;51.032;18.280;2023-05-27T13:46:00;8.00;;;1.20;;
57329;SDS011;43163;51.032;18.280;2023-05-27T13:55:51;2.50;;;1.60;;
57329;SDS011;43163;51.032;18.280;2023-05-27T14:05:41;2.00;;;1.50;;
57329;SDS011;43163;51.032;18.280;2023-05-27T14:15:31;2.70;;;1.40;;
57329;SDS011;43163;51.032;18.280;2023-05-27T14:25:26;3.60;;;1.60;;
57329;SDS011;43163;51.032;18.280;2023-05-27T14:35:20;4.40;;;1.90;;
57329;SDS011;43163;51.032;18.280;2023-05-27T14:45:11;0.50;;;0.50;;
57329;SDS011;43163;51.032;18.280;2023-05-27T14:55:01;3.30;;;1.50;;
57329;SDS011;43163;51.032;18.280;2023-05-27T15:04:59;1.80;;;1.40;;
57329;SDS011;43163;51.032;18.280;2023-05-27T15:14:49;0.50;;;0.50;;
57329;SDS011;43163;51.032;18.280;2023-05-27T15:24:38;1.60;;;1.50;;
57329;SDS011;43163;51.032;18.280;2023-05-27T15:34:29;2.90;;;1.50;;
57329;SDS011;43163;51.032;18.280;2023-05-27T15:44:20;3.50;;;1.30;;
57329;SDS011;43163;51.032;18.280;2023-05-27T15:54:11;1.70;;;1.20;;
57329;SDS011;43163;51.032;18.280;2023-05-27T16:04:03;3.90;;;1.70;;
57329;SDS011;43163;51.032;18.280;2023-05-27T16:13:57;13.90;;;2.90;;
57329;SDS011;43163;51.032;18.280;2023-05-27T16:23:48;5.00;;;2.20;;
57329;SDS011;43163;51.032;18.280;2023-05-27T16:33:38;4.70;;;2.40;;
57329;SDS011;43163;51.032;18.280;2023-05-27T17:27:40;12.80;;;2.70;;
57329;SDS011;43163;51.032;18.280;2023-05-27T17:37:30;2.30;;;2.00;;
57329;SDS011;43163;51.032;18.280;2023-05-27T17:47:20;7.60;;;3.00;;
57329;SDS011;43163;51.032;18.280;2023-05-27T17:57:10;6.50;;;3.50;;
57329;SDS011;43163;51.032;18.280;2023-05-27T18:07:00;6.00;;;3.00;;
57329;SDS011;43163;51.032;18.280;2023-05-27T18:16:49;14.60;;;3.10;;
57329;SDS011;43163;51.032;18.280;2023-05-27T18:34:01;8.20;;;3.60;;
57329;SDS011;43163;51.032;18.280;2023-05-27T18:43:54;2.00;;;1.80;;
57329;SDS011;43163;51.032;18.280;2023-05-27T18:53:42;4.10;;;2.30;;
57329;SDS011;43163;51.032;18.280;2023-05-27T19:03:33;10.20;;;2.50;;
57329;SDS011;43163;51.032;18.280;2023-05-27T19:13:24;2.30;;;1.20;;
57329;SDS011;43163;51.032;18.280;2023-05-27T19:23:13;4.80;;;1.60;;
57329;SDS011;43163;51.032;18.280;2023-05-27T19:33:04;3.80;;;2.60;;
57329;SDS011;43163;51.032;18.280;2023-05-27T19:42:54;3.70;;;2.50;;
57329;SDS011;43163;51.032;18.280;2023-05-27T19:52:45;10.80;;;2.90;;
